Nearby METAR Reports

 

KSJC - San Jose, California, USA
Distance from station: NE 9mi, 14km
Updated: Fri, 10-Jul-2020 5:53pm CDT
Partly cloudy
Partly cloudy
 Wind from NW
Wind: NW 12 mph , 19 km/h
Temperature: 84°F , 29°C
Dew Point: 54°F , 12°C
Humidity: 35%
Barometer: 29.98 inHg , 1015.2 hPa
Clouds: Partly cloudy
Visibility: 10 miles , 16 km
Cloud details: Few Clouds 7000 ft
Partly cloudy 10000 ft
Partly cloudy 12000 ft
2020/07/10 22:53 KSJC 102253Z 31010KT 10SM FEW070 SCT100 SCT120 29/12 A2998 RMK AO2 SLP151 T02940117
KNUQ - Moffett Nas/Mtn, California, USA
Distance from station: N 9mi, 14km
Updated: Fri, 10-Jul-2020 8:55am CDT
NOT Current

 Wind from calm
Wind: Calm
Temperature: 61°F , 16°C
Dew Point: 55°F , 13°C
Humidity: 83%
Barometer: 30.00 inHg , 1015.9 hPa
Visibility: 10 miles , 16 km
2020/07/10 13:55 KNUQ 101355Z AUTO 00000KT 10SM 16/13 A3000 RMK AO2
 
KPAO - Palo Alto, California, USA
Distance from station: NNW 14mi, 23km
Updated: Fri, 10-Jul-2020 6:00pm CDT
Partly cloudy
Partly cloudy
 Wind from NNW
Wind: NNW 12 mph , 19 km/h
Temperature: 75°F , 24°C
Dew Point: 57°F , 14°C
Humidity: 54%
Barometer: 29.99 inHg , 1015.6 hPa
Clouds: Partly cloudy
Visibility: 10 miles , 16 km
Cloud details: Partly cloudy 12000 ft
2020/07/10 23:00 KPAO 102300Z 34010KT 10SM SCT120 24/14 A2999 RMK LAST
KRHV - San Jose/Reid, California, USA
Distance from station: ENE 12mi, 19km
Updated: Fri, 10-Jul-2020 5:47pm CDT
Partly cloudy
Partly cloudy
 Wind from NNW
Wind: NNW 9 mph , 15 km/h
Temperature: 90°F , 32°C
Dew Point: 43°F , 6°C
Humidity: 20%
Barometer: 29.98 inHg , 1015.2 hPa
Clouds: Partly cloudy
Visibility: 10 miles , 16 km
Cloud details: Partly cloudy 10000 ft
2020/07/10 22:47 KRHV 102247Z 33008KT 10SM SCT100 32/06 A2998
 
KOAK - Oakland, California, USA
Distance from station: NNW 31mi, 50km
Updated: Fri, 10-Jul-2020 5:53pm CDT
Mostly cloudy
Mostly cloudy
 Wind from WNW
Wind: WNW 16 mph , 26 km/h
Temperature: 73°F , 23°C
Dew Point: 54°F , 12°C
Humidity: 50%
Barometer: 30.00 inHg , 1015.9 hPa
Clouds: Mostly cloudy
Visibility: 10 miles , 16 km
Cloud details: Mostly cloudy 16000 ft
2020/07/10 22:53 KOAK 102253Z 29014KT 10SM BKN160 23/12 A3000 RMK AO2 SLP158 T02330122
KSQL - San Carlos Airpo, California, USA
Distance from station: NW 21mi, 34km
Updated: Fri, 10-Jul-2020 5:47pm CDT
Mostly cloudy
Mostly cloudy
 Wind from WSW
Wind: WSW 8 mph , 13 km/h
Temperature: 82°F , 28°C
Dew Point: 54°F , 12°C
Humidity: 37%
Barometer: 29.99 inHg , 1015.6 hPa
Clouds: Mostly cloudy
Visibility: 10 miles , 16 km
Cloud details: Mostly cloudy 12000 ft
2020/07/10 22:47 KSQL 102247Z 25007KT 10SM BKN120 28/12 A2999 RMK DA
 
KSFO - San Francisco, California, USA
Distance from station: NW 30mi, 49km
Updated: Fri, 10-Jul-2020 5:56pm CDT
Mostly cloudy
Mostly cloudy
 Wind from NW
Wind: NW 20 mph , 31 km/h
Temperature: 73°F , 23°C
Dew Point: 52°F , 11°C
Humidity: 47%
Barometer: 30.00 inHg , 1015.9 hPa
Clouds: Mostly cloudy
Visibility: 10 miles , 16 km
Cloud details: Few Clouds 600 ft
Partly cloudy 15000 ft
Mostly cloudy 18000 ft
2020/07/10 22:56 KSFO 102256Z 31017KT 10SM FEW006 SCT150 BKN180 23/11 A3000 RMK AO2 SLP157 T02280111
KE16 - San Martin, California, USA
Distance from station: ESE 27mi, 43km
Updated: Fri, 10-Jul-2020 5:55pm CDT
Clear
Clear
 Wind from NW
Wind: NW 12 mph , 19 km/h, Gust: 16 mph , 26 km/h
Temperature: 95°F , 35°C
Dew Point: 37°F , 3°C
Humidity: 13%
Barometer: 29.97 inHg , 1014.9 hPa
Clouds: Clear
Visibility: 10 miles , 16 km
2020/07/10 22:55 KE16 102255Z AUTO 31010G14KT 10SM CLR 35/03 A2997 RMK AO2 PWINO PNO
 
KWVI - Watsonville, California, USA
Distance from station: SSE 27mi, 44km
Updated: Fri, 10-Jul-2020 5:53pm CDT
Clear
Clear
 Wind from S
Wind: S 9 mph , 15 km/h
Temperature: 66°F , 19°C
Dew Point: 55°F , 13°C
Humidity: 68%
Barometer: 30.02 inHg , 1016.6 hPa
Clouds: Clear
Visibility: 10 miles , 16 km
2020/07/10 22:53 KWVI 102253Z AUTO 19008KT 10SM CLR 19/13 A3002 RMK AO2 SLP166 T01940133
KHAF - Half Moon Bay, California, USA
Distance from station: WNW 31mi, 50km
Updated: Fri, 10-Jul-2020 6:15pm CDT
Clear
Clear
 Wind from NW
Wind: NW 10 mph , 17 km/h
Temperature: 57°F , 14°C
Dew Point: 54°F , 12°C
Humidity: 88%
Barometer: 30.05 inHg , 1017.6 hPa
Clouds: Clear
Visibility: 8 miles , 13 km
2020/07/10 23:15 KHAF 102315Z AUTO 32009KT 8SM CLR 14/12 A3005 RMK AO2
 
KHWD - Hayward, California, USA
Distance from station: N 28mi, 44km
Updated: Fri, 10-Jul-2020 5:54pm CDT
Clear
Clear
 Wind from W
Wind: W 13 mph , 20 km/h
Temperature: 79°F , 26°C
Dew Point: 54°F , 12°C
Humidity: 42%
Barometer: 29.99 inHg , 1015.6 hPa
Clouds: Clear
Visibility: 10 miles , 16 km
2020/07/10 22:54 KHWD 102254Z 28011KT 10SM CLR 26/12 A2999 RMK AO2 SLP164 T02560122
KLVK - Livermore, California, USA
Distance from station: NNE 31mi, 51km
Updated: Fri, 10-Jul-2020 5:53pm CDT
Clear
Clear
 Wind from W
Wind: W 14 mph , 22 km/h
Temperature: 95°F , 35°C
Dew Point: 36°F , 2°C
Humidity: 12%
Barometer: 29.96 inHg , 1014.6 hPa
Clouds: Clear
Visibility: 10 miles , 16 km
2020/07/10 22:53 KLVK 102253Z 28012KT 10SM CLR 35/02 A2996 RMK AO2 SLP139 T03500022